Flight Track Log - Related Links

Times and Time Zones

All times are in EDT time to prevent confusion due to time zone crossing. See the SKW5196 flight status page for this flight to view local times or setup timezone preferences in your user account.

Time Position Orientation Groundspeed Altitude Reporting Facility
EDT Latitude Longitude Course Direction KTS MPH feet Rate Location/Type
Fri 06:34:00 AM 40.0022 -82.9156 270° West 175 201 1,200  Level Indianapolis Center
Fri 06:34:51 AM 40.0042 -82.9633 273° West 192 221 2,300 1,892 Climbing Indianapolis Center
Fri 06:35:51 AM 40.0044 -83.0411 270° West 207 238 4,700 2,727 Climbing Indianapolis Center
Fri 06:36:00 AM 40.0001 -83.3036 270° West  Level FlightAware Approximate
Fri 06:36:52 AM 40.0053 -83.1486 271° West 251 289 7,800  Level Indianapolis Center
Fri 06:37:00 AM 40.0000 -83.4445 270° West  Level FlightAware Approximate
Fri 06:37:53 AM 40.0050 -83.2406 270° West 252 290 10,300  Level Indianapolis Center
Fri 06:38:00 AM 40.0000 -83.5854 270° West  Level FlightAware Approximate
Fri 06:38:53 AM 39.9625 -83.3317 239° Southwest 295 339 12,000  Level Indianapolis Center
Fri 06:39:00 AM 40.0000 -83.7263 270° West  Level FlightAware Approximate
Fri 06:39:54 AM 39.9153 -83.4283 238° Southwest 314 361 14,000  Level Indianapolis Center
Fri 06:40:55 AM 39.8719 -83.5175 238° Southwest 321 369 16,100 1,884 Climbing Indianapolis Center
Fri 06:41:55 AM 39.8197 -83.6211 237° Southwest 325 374 17,800 1,785 Climbing Indianapolis Center
Fri 06:42:56 AM 39.7706 -83.7217 238° Southwest 328 377 19,700 1,574 Climbing Indianapolis Center
Fri 06:43:57 AM 39.7186 -83.8253 237° Southwest 338 389 21,000 1,820 Climbing Indianapolis Center
Fri 06:44:58 AM 39.6675 -83.9289 237° Southwest 339 390 23,400 2,132 Climbing Indianapolis Center
Fri 06:45:58 AM 39.6181 -84.0272 237° Southwest 326 375 25,300 1,289 Climbing Indianapolis Center
Fri 06:46:59 AM 39.5678 -84.1286 237° Southwest 330 380 26,000 639 Climbing Indianapolis Center
Fri 06:48:00 AM 39.5114 -84.2397 237° Southwest 359 413 26,600 793 Climbing Indianapolis Center
Fri 06:49:00 AM 39.4536 -84.3539 237° Southwest 375 432 27,600 1,041 Climbing Indianapolis Center
Fri 06:50:01 AM 39.3947 -84.4686 236° Southwest 379 436 28,700 1,033 Climbing Indianapolis Center
Fri 06:51:02 AM 39.3361 -84.5858 237° Southwest 384 442 29,700 984 Climbing Indianapolis Center
Fri 06:52:03 AM 39.2767 -84.7019 237° Southwest 384 442 30,700 984 Climbing Indianapolis Center
Fri 06:53:04 AM 39.2172 -84.8169 236° Southwest 383 441 31,700 1,091 Climbing Indianapolis Center
Fri 06:54:04 AM 39.1508 -84.9456 236° Southwest 383 441 32,900 1,091 Climbing Indianapolis Center
Fri 06:55:05 AM 39.0933 -85.0575 237° Southwest 374 430 33,900 984 Climbing Indianapolis Center
Fri 06:56:06 AM 39.0356 -85.1683 236° Southwest 370 426 34,900 934 Climbing Indianapolis Center
Fri 06:57:07 AM 38.9792 -85.2769 236° Southwest 365 420 35,800 787 Climbing Indianapolis Center
Fri 06:58:08 AM 38.9233 -85.3822 236° Southwest 357 411 36,500 689 Climbing Indianapolis Center
Fri 06:59:09 AM 38.8678 -85.4892 236° Southwest 356 410 37,200 639 Climbing Indianapolis Center
Fri 07:00:10 AM 38.8139 -85.5922 236° Southwest 347 399 37,800 397 Climbing Indianapolis Center
Fri 07:01:10 AM 38.7611 -85.6944 237° Southwest 343 395 38,000 98 Climbing Indianapolis Center
Fri 07:02:12 AM 38.7056 -85.7989 236° Southwest 349 402 38,000  Level Indianapolis Center
Fri 07:03:12 AM 38.6561 -85.8925 236° Southwest 356 410 38,000  Level Indianapolis Center
Fri 07:04:13 AM 38.5981 -85.9997 235° Southwest 364 419 38,000  Level Indianapolis Center
Fri 07:05:15 AM 38.5400 -86.1097 236° Southwest 371 427 38,000  Level Indianapolis Center
Fri 07:06:15 AM 38.4811 -86.2214 236° Southwest 375 432 38,000  Level Indianapolis Center
Fri 07:07:16 AM 38.4214 -86.3325 236° Southwest 377 434 38,000  Level Indianapolis Center
Fri 07:08:17 AM 38.3486 -86.4650 235° Southwest 378 435 38,000  Level Indianapolis Center
Fri 07:09:18 AM 38.2747 -86.5631 226° Southwest 382 440 38,000  Level Indianapolis Center
Fri 07:10:19 AM 38.1914 -86.6528 220° Southwest 388 447 38,000  Level Indianapolis Center
Fri 07:11:20 AM 38.1094 -86.7417 220° Southwest 380 437 38,000  Level Indianapolis Center
Fri 07:12:21 AM 38.0281 -86.8294 220° Southwest 379 436 38,000  Level Indianapolis Center
Fri 07:13:22 AM 37.9472 -86.9156 220° Southwest 376 433 38,000  Level Indianapolis Center
Fri 07:14:24 AM 37.8664 -87.0006 220° Southwest 373 429 38,000  Level Indianapolis Center
Fri 07:15:25 AM 37.7869 -87.0853 220° Southwest 370 426 38,000  Level Indianapolis Center
Fri 07:16:26 AM 37.7069 -87.1703 220° Southwest 373 429 38,000  Level Indianapolis Center
Fri 07:17:27 AM 37.6250 -87.2556 220° Southwest 375 432 38,000  Level Indianapolis Center
Fri 07:18:09 AM 37.5675 -87.3194 221° Southwest 378 435 38,000  Level Memphis Center
Fri 07:19:09 AM 37.4842 -87.4089 220° Southwest 378 435 38,000  Level Memphis Center
Fri 07:20:09 AM 37.4008 -87.4931 219° Southwest 378 435 38,000  Level Memphis Center
Fri 07:21:09 AM 37.3194 -87.5794 220° Southwest 383 441 38,000  Level Memphis Center
Fri 07:22:09 AM 37.2381 -87.6656 220° Southwest 390 449 38,000  Level Memphis Center
Fri 07:23:09 AM 37.1525 -87.7517 219° Southwest 390 449 38,000  Level Memphis Center
Fri 07:24:09 AM 37.0689 -87.8403 220° Southwest 395 455 38,000  Level Memphis Center
Fri 07:25:09 AM 36.9811 -87.9289 219° Southwest 395 455 38,000  Level Memphis Center
Fri 07:26:09 AM 36.8953 -88.0169 219° Southwest 400 460 38,000  Level Memphis Center
Fri 07:27:09 AM 36.8092 -88.1050 219° Southwest 400 460 38,000  Level Memphis Center
Fri 07:28:09 AM 36.7189 -88.1825 215° Southwest 400 460 38,000  Level Memphis Center
Fri 07:29:09 AM 36.6200 -88.2500 209° Southwest 406 467 38,000  Level Memphis Center
Fri 07:30:09 AM 36.5169 -88.3172 208° Southwest 411 473 38,000  Level Memphis Center
Fri 07:31:09 AM 36.4283 -88.3761 208° Southwest 411 473 38,000  Level Memphis Center
Fri 07:32:09 AM 36.3292 -88.4403 208° Southwest 406 467 38,000  Level Memphis Center
Fri 07:33:09 AM 36.2303 -88.5044 208° Southwest 406 467 38,000  Level Memphis Center
Fri 07:34:09 AM 36.1331 -88.5683 208° Southwest 406 467 38,000  Level Memphis Center
Fri 07:35:09 AM 36.0319 -88.6322 207° Southwest 406 467 38,000  Level Memphis Center
Fri 07:36:09 AM 35.9369 -88.6983 209° Southwest 401 461 38,000  Level Memphis Center
Fri 07:37:09 AM 35.8397 -88.7617 208° Southwest 401 461 38,000  Level Memphis Center
Fri 07:38:09 AM 35.7425 -88.8250 208° Southwest 401 461 38,000  Level Memphis Center
Fri 07:39:09 AM 35.6411 -88.8933 209° Southwest 390 449 38,000  Level Memphis Center
Fri 07:40:09 AM 35.5458 -88.9586 209° Southwest 390 449 38,000  Level Memphis Center
Fri 07:41:09 AM 35.4506 -89.0214 208° Southwest 390 449 38,000  Level Memphis Center
Fri 07:42:09 AM 35.3553 -89.0817 207° Southwest 385 443 38,000  Level Memphis Center
Fri 07:43:09 AM 35.2581 -89.1442 208° Southwest 385 443 38,000  Level Memphis Center
Fri 07:44:09 AM 35.1731 -89.1961 207° Southwest 385 443 38,000  Level Memphis Center
Fri 07:45:09 AM 35.0797 -89.2583 209° Southwest 385 443 38,000  Level Memphis Center
Fri 07:46:09 AM 34.9822 -89.3206 208° Southwest 385 443 38,000  Level Memphis Center
Fri 07:47:09 AM 34.8867 -89.3772 206° Southwest 385 443 38,000  Level Memphis Center
Fri 07:48:09 AM 34.7808 -89.4469 208° Southwest 385 443 38,000  Level Memphis Center
Fri 07:49:09 AM 34.6831 -89.5086 207° Southwest 385 443 38,000  Level Memphis Center
Fri 07:50:09 AM 34.5897 -89.5700 208° Southwest 385 443 38,000  Level Memphis Center
Fri 07:51:09 AM 34.4961 -89.6314 208° Southwest 385 443 38,000  Level Memphis Center
Fri 07:52:09 AM 34.4025 -89.6900 207° Southwest 385 443 38,000  Level Memphis Center
Fri 07:53:09 AM 34.3047 -89.7536 208° Southwest 390 449 38,000  Level Memphis Center
Fri 07:54:09 AM 34.2175 -89.8069 207° Southwest 390 449 38,000  Level Memphis Center
Fri 07:55:09 AM 34.1194 -89.8678 207° Southwest 385 443 38,000  Level Memphis Center
Fri 07:56:09 AM 34.0197 -89.9311 208° Southwest 390 449 38,000  Level Memphis Center
Fri 07:57:09 AM 33.9217 -89.9942 208° Southwest 395 455 38,000  Level Memphis Center
Fri 07:58:09 AM 33.8156 -90.0622 208° Southwest 401 461 38,000  Level Memphis Center
Fri 07:59:09 AM 33.7153 -90.1250 208° Southwest 401 461 38,000  Level Memphis Center
Fri 08:00:09 AM 33.6133 -90.1850 206° Southwest 407 468 38,000  Level Memphis Center
Fri 08:01:09 AM 33.5131 -90.2525 209° Southwest 412 474 38,000  Level Memphis Center
Fri 08:02:09 AM 33.4192 -90.3250 213° Southwest 412 474 38,000  Level Memphis Center
Fri 08:03:09 AM 33.3358 -90.4119 221° Southwest 407 468 38,000  Level Memphis Center
Fri 08:04:09 AM 33.2606 -90.4889 221° Southwest 407 468 38,000  Level Memphis Center
Fri 08:05:09 AM 33.1769 -90.5756 221° Southwest 407 468 38,000  Level Memphis Center
Fri 08:06:09 AM 33.0933 -90.6647 222° Southwest 407 468 38,000  Level Memphis Center
Fri 08:07:09 AM 33.0094 -90.7486 220° Southwest 407 468 38,000  Level Memphis Center
Fri 08:08:09 AM 32.9236 -90.8375 221° Southwest 407 468 38,000  Level Memphis Center
Fri 08:09:09 AM 32.8397 -90.9236 221° Southwest 407 468 38,000  Level Memphis Center
Fri 08:10:09 AM 32.7517 -91.0094 219° Southwest 412 474 38,000  Level Memphis Center
Fri 08:12:05 AM 32.5825 -91.1831 221° Southwest 404 465 38,000  Level Houston Center
Fri 08:13:06 AM 32.4981 -91.2686 221° Southwest 402 463 38,000  Level Houston Center
Fri 08:14:08 AM 32.4133 -91.3536 220° Southwest 402 463 38,000  Level Houston Center
Fri 08:15:09 AM 32.3286 -91.4392 220° Southwest 399 459 38,000  Level Houston Center
Fri 08:16:11 AM 32.2436 -91.5239 220° Southwest 400 460 38,000  Level Houston Center
Fri 08:17:12 AM 32.1592 -91.6086 220° Southwest 399 459 38,000  Level Houston Center
Fri 08:18:13 AM 32.0744 -91.6944 221° Southwest 401 461 38,000  Level Houston Center
Fri 08:19:15 AM 31.9894 -91.7792 220° Southwest 400 460 38,000  Level Houston Center
Fri 08:20:16 AM 31.9033 -91.8642 220° Southwest 402 463 38,000  Level Houston Center
Fri 08:21:18 AM 31.8014 -91.9658 220° Southwest 402 463 38,000  Level Houston Center
Fri 08:22:19 AM 31.7136 -92.0514 220° Southwest 406 467 38,000  Level Houston Center
Fri 08:23:21 AM 31.6264 -92.1381 220° Southwest 410 472 38,000  Level Houston Center
Fri 08:24:22 AM 31.5411 -92.2225 220° Southwest 407 468 38,000  Level Houston Center
Fri 08:25:23 AM 31.4561 -92.3044 219° Southwest 401 461 38,000  Level Houston Center
Fri 08:26:25 AM 31.3731 -92.3864 220° Southwest 396 456 38,000  Level Houston Center
Fri 08:27:26 AM 31.2906 -92.4672 220° Southwest 391 450 38,000  Level Houston Center
Fri 08:28:28 AM 31.2194 -92.5542 226° Southwest 381 438 38,000  Level Houston Center
Fri 08:29:30 AM 31.1572 -92.6792 240° Southwest 369 425 38,000  Level Houston Center
Fri 08:30:31 AM 31.1014 -92.7786 237° Southwest 367 422 38,000 -244 Level Houston Center
Fri 08:31:33 AM 31.0439 -92.8797 236° Southwest 374 430 37,500 -780 Descending Houston Center
Fri 08:32:34 AM 30.9858 -92.9847 237° Southwest 385 443 36,400 -1,024 Descending Houston Center
Fri 08:33:36 AM 30.9267 -93.0894 237° Southwest 387 445 35,400 -976 Descending Houston Center
Fri 08:34:37 AM 30.8689 -93.1919 237° Southwest 382 440 34,400 -976 Descending Houston Center
Fri 08:35:39 AM 30.8114 -93.2939 237° Southwest 380 437 33,400 -1,065 Descending Houston Center
Fri 08:36:41 AM 30.7389 -93.4233 237° Southwest 398 458 32,200 -1,073 Descending Houston Center
Fri 08:37:42 AM 30.6775 -93.5322 237° Southwest 405 466 31,200 -927 Descending Houston Center
Fri 08:38:44 AM 30.6150 -93.6400 236° Southwest 407 468 30,300 -927 Descending Houston Center
Fri 08:39:45 AM 30.5511 -93.7517 236° Southwest 420 483 29,300 -1,756 Descending Houston Center
Fri 08:40:47 AM 30.4861 -93.8647 236° Southwest 427 491 26,700 -2,952 Descending Houston Center
Fri 08:41:49 AM 30.4236 -93.9753 237° Southwest 416 479 23,200 -3,756 Descending Houston Center
Fri 08:42:50 AM 30.3478 -94.1050 236° Southwest 409 471 19,000 -3,462 Descending Houston Center
Fri 08:43:33 AM 30.3078 -94.1758 237° Southwest 380 437 17,200 -2,516 Descending Houston Center
Fri 08:43:52 AM 30.2964 -94.2056 246° West 369 425 16,400 -2,880 Descending Houston Center
Fri 08:44:23 AM 30.2833 -94.2686 257° West 337 388 14,800 -2,656 Descending Houston Center
Fri 08:44:53 AM 30.2622 -94.3061 237° Southwest 356 410 13,700 -2,459 Descending Houston Center
Fri 08:45:24 AM 30.2214 -94.3422 217° Southwest 330 380 12,300 -1,645 Descending Houston Center
Fri 08:45:55 AM 30.1978 -94.3775 232° Southwest 331 381 12,000 -492 Descending Houston Center
Fri 08:46:25 AM 30.1844 -94.4364 255° West 322 371 11,800 -677 Descending Houston Center
Fri 08:46:57 AM 30.1792 -94.4769 261° West 322 371 11,300 -1,071 Descending Houston Center
Fri 08:47:21 AM 30.1703 -94.5278 259° West 314 361 10,800 -885 Descending Houston Center
Fri 08:47:58 AM 30.1625 -94.5775 260° West 302 348 10,400 -727 Descending Houston Center
Fri 08:48:27 AM 30.1528 -94.6292 258° West 284 327 10,000 -677 Descending Houston Center
Fri 08:49:00 AM 30.1464 -94.6664 259° West 285 328 9,700 -677 Descending Houston Center
Fri 08:49:29 AM 30.1364 -94.7208 258° West 285 328 9,300 -677 Descending Houston Center
Fri 08:50:02 AM 30.1306 -94.7547 259° West 282 325 9,000 -689 Descending Houston Center
Fri 08:50:30 AM 30.1217 -94.8072 259° West 272 313 8,600 -689 Descending Houston Center
Fri 08:51:03 AM 30.1167 -94.8381 259° West 269 310 8,300 -689 Descending Houston Center
Fri 08:51:31 AM 30.1081 -94.8861 258° West 254 292 7,900 -774 Descending Houston Center
Fri 08:52:05 AM 30.1061 -94.9328 267° West 251 289 7,500 -689 Descending Houston Center
Fri 08:52:32 AM 30.1056 -94.9711 269° West 251 289 7,200 -677 Descending Houston Center
Fri 08:53:07 AM 30.1064 -95.0136 271° West 252 290 6,800 -774 Descending Houston Center
Fri 08:53:34 AM 30.1050 -95.0533 268° West 254 292 6,400 -677 Descending Houston Center
Fri 08:54:09 AM 30.1069 -95.0942 273° West 252 290 6,100 -393 Descending Houston Center
Fri 08:54:35 AM 30.1061 -95.1328 269° West 251 289 6,000 -97 Descending Houston Center
Fri 08:55:11 AM 30.1064 -95.1736 270° West 251 289 6,000  Level Houston Center
Fri 08:55:30 AM 30.1067 -95.2078 271° West 249 287 6,000  Level Houston Center
Fri 08:56:12 AM 30.1069 -95.2536 270° West 250 288 6,000  Level Houston Center
Fri 08:56:37 AM 30.1067 -95.2994 270° West 250 288 6,000  Level Houston Center
Fri 08:57:14 AM 30.1075 -95.3322 272° West 248 285 6,000 -492 Level Houston Center
Fri 08:57:38 AM 30.1056 -95.3769 267° West 245 282 5,500 -871 Descending Houston Center
Fri 08:58:16 AM 30.1078 -95.4256 273° West 244 281 5,100 -689 Descending Houston Center
Fri 08:58:39 AM 30.1061 -95.4542 266° West 244 281 4,800 -774 Descending Houston Center
Fri 08:59:18 AM 30.1075 -95.4994 272° West 235 270 4,300 -750 Descending Houston Center
Fri 08:59:35 AM 30.1078 -95.5192 271° West 215 247 4,100 -581 Descending Houston Center
Fri 09:00:20 AM 30.1083 -95.5681 271° West 220 253 3,700 -636 Descending Houston Center
Fri 09:00:41 AM 30.1069 -95.6014 267° West 223 257 3,400 -689 Descending Houston Center
Fri 09:01:21 AM 30.1083 -95.6397 272° West 221 254 3,000 -387 Descending Houston Center
Fri 09:01:43 AM 30.1067 -95.6714 267° West 223 257 3,000  Level Houston Center
Fri 09:02:23 AM 30.1075 -95.7100 271° West 222 255 3,000  Level Houston Center
Fri 09:02:44 AM 30.1069 -95.7436 269° West 219 252 3,000  Level Houston Center
Fri 09:03:25 AM 30.0872 -95.7658 224° Southwest 224 258 3,000  Level Houston Center
Fri 09:04:27 AM 30.0344 -95.7547 170° South 190 219 3,000  Level Houston Center
Fri 09:04:46 AM 30.0244 -95.7364 122° Southeast 190 219 3,000  Level Houston Center
Fri 09:05:29 AM 30.0144 -95.6992 107° East 190 219 3,000  Level Houston Center
Fri 09:05:54 AM 30.0108 -95.6778 101° East 169 194 3,000  Level Houston Center
Fri 09:06:31 AM 30.0103 -95.6450 91° East 175 201 3,000  Level Houston Center
Fri 09:06:48 AM 30.0061 -95.6253 104° East 177 204 3,000  Level Houston Center
Fri 09:07:32 AM 30.0069 -95.5894 88° East 175 201 3,000  Level Houston Center
Fri 09:07:50 AM 30.0050 -95.5675 96° East 176 203 3,000  Level Houston Center
Fri 09:08:34 AM 30.0069 -95.5325 86° East 176 203 3,000 -295 Level Houston Center
Fri 09:08:51 AM 30.0061 -95.5094 92° East 176 203 2,700 -871 Descending Houston Center
Fri 09:09:36 AM 30.0072 -95.4764 88° East 175 201 2,100 -806 Descending Houston Center
Fri 09:09:58 AM 30.0072 -95.4514 90° East 156 180 1,800 -818 Descending Houston Center

Login

Don't have an account? Register now (free) for customized features, flight alerts, and more!